Edinburgh, Verenigd Koninkrijk

4:32 AM BST op 23 augustus 2014 (GMT +0100)
Edinburgh Airport | Change Station
CLOSE
Current Station
Luchthaven
Location: Edinburgh Airport,
Geometrische hoogte: 135 ft
Nabije weerstations

Hoogte 135 ft 55.95 °N, 3.35 °W | Updated 12 minutes ago

Clear
Helder
46 °F
Voelt als 45 °F
N
4
Wind Variabel Wind van west

Vandaag
Hoog -- | Laag -- °F
--% Kans op neerslag
Gisteren
Hoog -- | Laag -- °F
Precip. -- inches
5:59 AM 8:30 PM
Afnemende halvemaan, 5% visible
Druk 29.89 inches
Zicht -9999.0 mijlen
Wolken
Gevoelstemperatuur 45 °F
Dauwpunt 45 °F
Vochtigheid 93%
Neerslag 0.00 inches
Dikte sneeuw Niet beschikbaar.
UV Niet beschikbaar.
Pollen Niet beschikbaar.
Luchtkwaliteit Niet beschikbaar.
Flu Activity Niet beschikbaar.
METAR EGPH 230320Z 26003KT CAVOK 08/07 Q1012

More Conditions Fewer Conditions

Druk 29.89 inches
Zicht -9999.0 mijlen
Wolken
Gevoelstemperatuur 45 °F
Dauwpunt 45 °F
Vochtigheid 93%
Neerslag 0.00 inches
Dikte sneeuw Niet beschikbaar.
UV Niet beschikbaar.
Pollen Niet beschikbaar.
Luchtkwaliteit Niet beschikbaar.
Flu Activity Niet beschikbaar.
METAR EGPH 230320Z 26003KT CAVOK 08/07 Q1012

More Conditions Fewer Conditions

10-Day Weather Forecast

Almanac

Astronomie

Aug. 23, 2014 Opkomst Ondergang
Werkelijke tijd 5:59 AM BST 8:30 PM BST
Burgerlijke schemering 5:18 AM BST 9:11 PM BST
Nautische schemering 4:24 AM BST 10:05 PM BST
Astronomische schemering 3:16 AM BST 11:11 PM BST
Maan 3:54 AM BST 7:10 PM BST
Golflengte van het zichtbare licht 15h 53m
Daglengte
14h 31m
Tomorrow will be 4m 27s shorter.
Afnemende halvemaan, 5% of the Moon is Illuminated
aug 22
Afnemende halvemaan
aug 25
Nieuw
sep 2
Eerste kwartier
sep 8
Volle maan
sep 15
Laatste kwartier

Extremen gisteren

Country Highs Country Lows

Community

WunderPhotos

Upload Photos

1,746,352 foto’s ge-upload!

WunderBlogs® & News

Nearby

Luchtkwaliteit

Not available.

Dikte sneeuw

Not available.

Aardbevingen

Stad Distance Mag. Time & Date
No recent earthquake activity has been reported nearby.
Minimum magnitude displayed is 2.5.

Watertemperatuur langs de kust

Plaats Temperatuur
Geen meldingen van stations

Nabije weerstations